Time;durP1;ratioP1;P1;durP2;ratioP2;P2;SDS_P1;SDS_P2;PMS_P1;PMS_P2;Temp;Humidity;BMP_temperature;BMP_pressure;BME280_temperature;BME280_humidity;BME280_pressure;Samples;Min_cycle;Max_cycle;Signal;HPM_P1;HPM_P2
2021/11/30 00:00:00;;;;;;;1.38;0.80;;;;;;;;;;5046938;28;20421;-83
2021/11/30 00:02:26;;;;;;;0.75;0.57;;;;;;;;;;5065053;28;20060;-83
2021/11/30 00:04:52;;;;;;;2.22;0.70;;;;;;;;;;5065432;28;20054;-80
2021/11/30 00:07:17;;;;;;;0.60;0.50;;;;;;;;;;5065788;28;20055;-77
2021/11/30 00:12:22;;;;;;;0.93;0.60;;;;;;;;;;5066073;28;20025;-82
2021/11/30 00:14:51;;;;;;;0.70;0.40;;;;;;;;;;5047750;28;20470;-83
2021/11/30 00:17:18;;;;;;;1.38;0.70;;;;;;;;;;5065657;28;20028;-83
2021/11/30 00:19:45;;;;;;;0.60;0.40;;;;;;;;;;5047646;28;20170;-79
2021/11/30 00:22:12;;;;;;;1.60;0.93;;;;;;;;;;5065654;28;20116;-83
2021/11/30 00:24:38;;;;;;;1.92;0.70;;;;;;;;;;5065191;28;20080;-82
2021/11/30 00:27:06;;;;;;;1.35;0.63;;;;;;;;;;5065288;28;20044;-80
2021/11/30 00:29:33;;;;;;;0.80;0.63;;;;;;;;;;5047058;28;20428;-81
2021/11/30 00:31:59;;;;;;;1.02;0.63;;;;;;;;;;5046429;28;20466;-80
2021/11/30 00:34:25;;;;;;;1.05;0.55;;;;;;;;;;5047371;28;20092;-78
2021/11/30 00:36:51;;;;;;;1.02;0.52;;;;;;;;;;5046905;28;20048;-79
2021/11/30 00:39:17;;;;;;;0.85;0.60;;;;;;;;;;5047560;28;20029;-81
2021/11/30 00:41:51;;;;;;;2.80;0.70;;;;;;;;;;5047121;28;20043;-81
2021/11/30 00:44:21;;;;;;;1.33;0.73;;;;;;;;;;5047401;28;20055;-82
2021/11/30 00:46:49;;;;;;;1.10;0.60;;;;;;;;;;5047465;28;20402;-81
2021/11/30 00:49:14;;;;;;;1.10;0.85;;;;;;;;;;5065434;28;20021;-83
2021/11/30 00:51:41;;;;;;;3.67;0.88;;;;;;;;;;5064937;28;20036;-81
2021/11/30 00:54:10;;;;;;;0.73;0.50;;;;;;;;;;5047212;28;20520;-79
2021/11/30 00:56:39;;;;;;;1.58;0.60;;;;;;;;;;5065226;28;20036;-79
2021/11/30 00:59:04;;;;;;;0.43;0.40;;;;;;;;;;5047178;28;20093;-80
2021/11/30 01:01:31;;;;;;;1.55;0.60;;;;;;;;;;5064797;28;20052;-79
2021/11/30 01:03:57;;;;;;;0.55;0.47;;;;;;;;;;5064770;28;20099;-78
2021/11/30 01:06:23;;;;;;;0.85;0.50;;;;;;;;;;5064717;28;20096;-80
2021/11/30 01:08:49;;;;;;;0.98;0.57;;;;;;;;;;5064826;28;20045;-82
2021/11/30 01:11:14;;;;;;;1.98;0.60;;;;;;;;;;5046590;28;20032;-78
2021/11/30 01:13:39;;;;;;;0.90;0.50;;;;;;;;;;5064873;28;20561;-77
2021/11/30 01:16:05;;;;;;;1.35;0.68;;;;;;;;;;5046687;28;20129;-81
2021/11/30 01:18:31;;;;;;;1.30;0.60;;;;;;;;;;5064595;28;20026;-80
2021/11/30 01:20:57;;;;;;;1.67;0.68;;;;;;;;;;5045836;28;20036;-81
2021/11/30 01:23:25;;;;;;;1.63;0.60;;;;;;;;;;5064626;28;20028;-79
2021/11/30 01:25:50;;;;;;;1.75;0.73;;;;;;;;;;5046582;28;20097;-80
2021/11/30 01:28:15;;;;;;;0.80;0.63;;;;;;;;;;5064401;28;20053;-78
2021/11/30 01:30:41;;;;;;;1.13;0.60;;;;;;;;;;5046592;28;20029;-77
2021/11/30 01:33:07;;;;;;;1.05;0.65;;;;;;;;;;5064427;28;20025;-79
2021/11/30 01:35:33;;;;;;;1.10;0.70;;;;;;;;;;5045865;28;20060;-79
2021/11/30 01:38:00;;;;;;;1.02;0.50;;;;;;;;;;5046308;28;20112;-81
2021/11/30 01:40:28;;;;;;;1.00;0.70;;;;;;;;;;5045855;28;20032;-78
2021/11/30 01:42:56;;;;;;;1.65;0.80;;;;;;;;;;5046088;28;20025;-81
2021/11/30 01:50:32;;;;;;;1.05;0.70;;;;;;;;;;5063274;28;20033;-80
2021/11/30 01:52:58;;;;;;;1.35;0.70;;;;;;;;;;5063450;28;20025;-81
2021/11/30 01:55:23;;;;;;;1.13;0.60;;;;;;;;;;5063859;28;20032;-81
2021/11/30 01:57:52;;;;;;;0.88;0.65;;;;;;;;;;5063661;28;20032;-79
2021/11/30 02:00:19;;;;;;;2.40;0.82;;;;;;;;;;5045462;28;20071;-80
2021/11/30 02:02:45;;;;;;;1.42;0.80;;;;;;;;;;5045809;28;20052;-80
2021/11/30 02:05:11;;;;;;;1.25;0.70;;;;;;;;;;5045712;28;20033;-82
2021/11/30 02:07:38;;;;;;;1.20;0.70;;;;;;;;;;5045829;28;20037;-82
2021/11/30 02:10:08;;;;;;;1.33;0.75;;;;;;;;;;5045666;28;20093;-80
2021/11/30 02:12:34;;;;;;;1.92;0.70;;;;;;;;;;5063737;28;20029;-80
2021/11/30 02:15:01;;;;;;;1.67;0.88;;;;;;;;;;5063364;28;20029;-82
2021/11/30 02:17:27;;;;;;;1.15;0.80;;;;;;;;;;5045296;28;20029;-82
2021/11/30 02:19:57;;;;;;;2.60;1.00;;;;;;;;;;5045057;28;20439;-80
2021/11/30 02:22:23;;;;;;;1.88;0.75;;;;;;;;;;5063156;28;20059;-80
2021/11/30 02:24:50;;;;;;;1.33;0.70;;;;;;;;;;5045120;28;20021;-82
2021/11/30 02:27:16;;;;;;;1.48;1.02;;;;;;;;;;5045448;28;20466;-80
2021/11/30 02:29:41;;;;;;;1.75;0.98;;;;;;;;;;5062981;28;20049;-79
2021/11/30 02:32:07;;;;;;;1.52;0.90;;;;;;;;;;5045748;28;20023;-81
2021/11/30 02:34:33;;;;;;;1.23;0.90;;;;;;;;;;5063506;28;20020;-80
2021/11/30 02:37:11;;;;;;;1.88;0.82;;;;;;;;;;5062378;28;20043;-81
2021/11/30 02:39:37;;;;;;;4.35;1.02;;;;;;;;;;5045182;28;20021;-81
2021/11/30 02:42:07;;;;;;;1.00;0.63;;;;;;;;;;5045098;28;20044;-79
2021/11/30 02:44:34;;;;;;;1.17;0.77;;;;;;;;;;5062807;28;20081;-81
2021/11/30 02:47:05;;;;;;;1.25;0.80;;;;;;;;;;5063040;28;20133;-77
2021/11/30 02:49:33;;;;;;;1.73;0.82;;;;;;;;;;5062888;28;20082;-81
2021/11/30 02:52:05;;;;;;;1.17;0.70;;;;;;;;;;5062989;28;20025;-79
2021/11/30 02:54:32;;;;;;;0.90;0.68;;;;;;;;;;5028428;28;20033;-79
2021/11/30 02:57:00;;;;;;;2.05;0.82;;;;;;;;;;5044975;28;20033;-80
2021/11/30 02:59:29;;;;;;;2.42;0.90;;;;;;;;;;5063113;28;20029;-79
2021/11/30 03:02:00;;;;;;;0.70;0.50;;;;;;;;;;5062253;28;20040;-80
2021/11/30 03:04:26;;;;;;;2.47;1.00;;;;;;;;;;5062998;28;20060;-80
2021/11/30 03:06:53;;;;;;;4.00;0.90;;;;;;;;;;5062143;28;20127;-80
2021/11/30 03:09:19;;;;;;;1.17;0.77;;;;;;;;;;5044748;28;20112;-82
2021/11/30 03:11:45;;;;;;;1.73;0.52;;;;;;;;;;5062677;28;20029;-80
2021/11/30 03:14:11;;;;;;;1.67;0.60;;;;;;;;;;5045078;28;20025;-81
2021/11/30 03:16:37;;;;;;;0.85;0.70;;;;;;;;;;5063045;28;20071;-81
2021/11/30 03:19:04;;;;;;;0.80;0.60;;;;;;;;;;5062950;28;20033;-80
2021/11/30 03:21:29;;;;;;;2.30;1.00;;;;;;;;;;5044501;28;20051;-80
2021/11/30 03:23:55;;;;;;;3.17;0.90;;;;;;;;;;5044607;28;20045;-81
2021/11/30 03:26:21;;;;;;;1.50;0.70;;;;;;;;;;5062042;28;20024;-82
2021/11/30 03:28:46;;;;;;;1.17;0.50;;;;;;;;;;5033344;28;20113;-79
2021/11/30 03:34:00;;;;;;;1.63;0.82;;;;;;;;;;5042306;28;20566;-81
2021/11/30 03:36:29;;;;;;;2.22;0.68;;;;;;;;;;5042366;28;20039;-79
2021/11/30 03:38:56;;;;;;;1.75;0.63;;;;;;;;;;5024455;28;20555;-80
2021/11/30 03:41:22;;;;;;;1.83;0.93;;;;;;;;;;5042093;28;20017;-81
2021/11/30 03:43:48;;;;;;;1.92;0.80;;;;;;;;;;5024739;28;20036;-81
2021/11/30 03:46:14;;;;;;;1.33;0.65;;;;;;;;;;5042652;28;20031;-82
2021/11/30 03:48:39;;;;;;;1.15;0.93;;;;;;;;;;5042608;28;20029;-80
2021/11/30 03:51:04;;;;;;;1.58;0.75;;;;;;;;;;5024457;28;20041;-79
2021/11/30 03:53:30;;;;;;;1.30;0.70;;;;;;;;;;5024548;28;20022;-81
2021/11/30 03:55:55;;;;;;;2.28;1.20;;;;;;;;;;5024510;28;20033;-80
2021/11/30 03:58:21;;;;;;;1.40;0.70;;;;;;;;;;5042507;28;20029;-77
2021/11/30 04:00:46;;;;;;;0.98;0.77;;;;;;;;;;5024525;28;20029;-80
2021/11/30 04:03:12;;;;;;;1.67;0.88;;;;;;;;;;5024823;28;20052;-79
2021/11/30 04:05:38;;;;;;;0.98;0.65;;;;;;;;;;5042275;28;20026;-82
2021/11/30 04:08:04;;;;;;;1.35;0.80;;;;;;;;;;5027126;28;20037;-78
2021/11/30 04:10:29;;;;;;;0.70;0.50;;;;;;;;;;5028034;28;20025;-79
2021/11/30 04:12:55;;;;;;;0.65;0.50;;;;;;;;;;5028176;28;20417;-81
2021/11/30 04:15:20;;;;;;;0.80;0.60;;;;;;;;;;5027768;28;20039;-79
2021/11/30 04:17:47;;;;;;;4.45;0.90;;;;;;;;;;5027793;28;20079;-82
2021/11/30 04:20:13;;;;;;;1.42;0.80;;;;;;;;;;5027801;28;20025;-80
2021/11/30 04:22:40;;;;;;;1.35;0.65;;;;;;;;;;5027874;28;20041;-80
2021/11/30 04:25:08;;;;;;;1.20;0.70;;;;;;;;;;5027738;28;20052;-78
2021/11/30 04:27:34;;;;;;;0.98;0.65;;;;;;;;;;5046437;28;20029;-80
2021/11/30 04:30:00;;;;;;;1.70;0.60;;;;;;;;;;5065337;28;20025;-79
2021/11/30 04:32:26;;;;;;;1.00;0.70;;;;;;;;;;5065927;28;20100;-79
2021/11/30 04:34:52;;;;;;;1.15;0.60;;;;;;;;;;5065289;28;20448;-80
2021/11/30 04:37:17;;;;;;;2.42;0.80;;;;;;;;;;5065659;28;20041;-80
2021/11/30 04:39:42;;;;;;;2.08;0.80;;;;;;;;;;5065397;28;20033;-79
2021/11/30 04:42:08;;;;;;;1.25;0.68;;;;;;;;;;5047317;28;20040;-80
2021/11/30 04:44:35;;;;;;;0.73;0.60;;;;;;;;;;5047183;28;20025;-80
2021/11/30 04:47:10;;;;;;;1.20;0.70;;;;;;;;;;5047391;28;20036;-79
2021/11/30 04:52:08;;;;;;;0.57;0.40;;;;;;;;;;5065290;28;20025;-78
2021/11/30 04:54:33;;;;;;;2.45;0.60;;;;;;;;;;5046845;28;20092;-77
2021/11/30 04:56:59;;;;;;;1.67;1.02;;;;;;;;;;5046972;28;20060;-77
2021/11/30 04:59:24;;;;;;;1.10;0.63;;;;;;;;;;5047035;28;20100;-77
2021/11/30 05:01:50;;;;;;;2.47;0.82;;;;;;;;;;5064860;28;20083;-79
2021/11/30 05:04:16;;;;;;;1.48;0.70;;;;;;;;;;5046900;28;20037;-79
2021/11/30 05:06:43;;;;;;;1.58;0.80;;;;;;;;;;5064729;28;20029;-80
2021/11/30 05:09:09;;;;;;;1.17;0.60;;;;;;;;;;5044683;28;20036;-77
2021/11/30 05:11:37;;;;;;;0.85;0.55;;;;;;;;;;5046774;28;20485;-78
2021/11/30 05:14:03;;;;;;;1.02;0.60;;;;;;;;;;5065044;28;20124;-78
2021/11/30 05:16:29;;;;;;;1.25;0.80;;;;;;;;;;5064400;28;20075;-78
2021/11/30 05:18:54;;;;;;;1.58;0.60;;;;;;;;;;5064391;28;20479;-78
2021/11/30 05:21:20;;;;;;;1.45;0.70;;;;;;;;;;5064602;28;20025;-78
2021/11/30 05:23:45;;;;;;;0.50;0.50;;;;;;;;;;5064311;28;20033;-77
2021/11/30 05:26:11;;;;;;;1.58;0.60;;;;;;;;;;5046451;28;20021;-78
2021/11/30 05:28:40;;;;;;;0.90;0.60;;;;;;;;;;5064580;28;20140;-79
2021/11/30 05:31:07;;;;;;;0.70;0.60;;;;;;;;;;5064594;28;20032;-79
2021/11/30 05:33:33;;;;;;;1.10;0.73;;;;;;;;;;5064623;28;20062;-77
2021/11/30 05:36:01;;;;;;;3.10;0.85;;;;;;;;;;5064109;28;20044;-78
2021/11/30 05:38:27;;;;;;;3.22;0.80;;;;;;;;;;5064348;28;20025;-77
2021/11/30 05:40:52;;;;;;;0.82;0.60;;;;;;;;;;5046549;28;20574;-77
2021/11/30 05:43:18;;;;;;;1.02;0.77;;;;;;;;;;5046859;28;20051;-78
2021/11/30 05:45:44;;;;;;;2.08;0.85;;;;;;;;;;5064401;28;20028;-77
2021/11/30 05:48:10;;;;;;;3.50;0.80;;;;;;;;;;5064384;28;20056;-77
2021/11/30 05:50:36;;;;;;;2.22;0.77;;;;;;;;;;5064321;28;20044;-79
2021/11/30 05:53:02;;;;;;;0.98;0.57;;;;;;;;;;5063986;28;20113;-77
2021/11/30 05:55:28;;;;;;;1.85;0.70;;;;;;;;;;5064272;28;20142;-79
2021/11/30 05:57:53;;;;;;;3.92;0.82;;;;;;;;;;5064345;28;20033;-76
2021/11/30 06:00:19;;;;;;;1.70;0.82;;;;;;;;;;5063836;28;20033;-77
2021/11/30 06:03:07;;;;;;;2.00;0.90;;;;;;;;;;5064285;28;20019;-79
2021/11/30 06:05:34;;;;;;;3.17;1.10;;;;;;;;;;5045936;28;20025;-78
2021/11/30 06:08:00;;;;;;;6.20;1.95;;;;;;;;;;5046010;28;20029;-76
2021/11/30 06:10:26;;;;;;;1.67;1.00;;;;;;;;;;5063676;28;20513;-77
2021/11/30 06:12:52;;;;;;;4.60;1.30;;;;;;;;;;5046076;28;20029;-77
2021/11/30 06:15:18;;;;;;;9.55;1.50;;;;;;;;;;5045867;28;20028;-76
2021/11/30 06:17:44;;;;;;;6.45;1.83;;;;;;;;;;5063636;28;20029;-78
2021/11/30 06:20:11;;;;;;;6.28;1.70;;;;;;;;;;5063485;28;20056;-77
2021/11/30 06:22:37;;;;;;;4.63;1.33;;;;;;;;;;5045923;28;20029;-77
2021/11/30 06:25:05;;;;;;;3.22;0.85;;;;;;;;;;5063404;28;20047;-79
2021/11/30 06:27:31;;;;;;;2.08;1.10;;;;;;;;;;5063521;28;20021;-80
2021/11/30 06:29:56;;;;;;;2.88;1.10;;;;;;;;;;5044633;28;20531;-76
2021/11/30 06:32:22;;;;;;;6.13;1.17;;;;;;;;;;5063418;28;20021;-77
2021/11/30 06:34:48;;;;;;;1.92;1.00;;;;;;;;;;5045075;28;20032;-77
2021/11/30 06:37:13;;;;;;;2.30;1.13;;;;;;;;;;5063595;28;20051;-77
2021/11/30 06:39:39;;;;;;;3.45;1.10;;;;;;;;;;5062888;28;20029;-76
2021/11/30 06:42:05;;;;;;;4.03;1.15;;;;;;;;;;5063251;28;20033;-78
2021/11/30 06:44:35;;;;;;;1.27;0.80;;;;;;;;;;5045091;28;20051;-75
2021/11/30 06:47:04;;;;;;;1.25;0.70;;;;;;;;;;5063172;28;20292;-76
2021/11/30 06:49:30;;;;;;;2.60;1.05;;;;;;;;;;5063012;28;20044;-77
2021/11/30 06:51:56;;;;;;;1.65;0.80;;;;;;;;;;5044959;28;20033;-76
2021/11/30 06:54:23;;;;;;;2.40;1.00;;;;;;;;;;5045207;28;20178;-77
2021/11/30 06:56:49;;;;;;;2.80;1.02;;;;;;;;;;5062973;28;20033;-75
2021/11/30 06:59:14;;;;;;;3.72;0.95;;;;;;;;;;5062890;28;20036;-76
2021/11/30 07:01:42;;;;;;;1.60;0.90;;;;;;;;;;5044549;28;20028;-79
2021/11/30 07:04:08;;;;;;;1.63;0.82;;;;;;;;;;5062878;28;20136;-77
2021/11/30 07:11:54;;;;;;;1.83;0.90;;;;;;;;;;5063029;28;20094;-75
2021/11/30 07:14:19;;;;;;;4.32;0.88;;;;;;;;;;5063493;28;20021;-76
2021/11/30 07:16:47;;;;;;;2.58;1.30;;;;;;;;;;5062853;28;20036;-78
2021/11/30 07:19:13;;;;;;;1.77;0.98;;;;;;;;;;5062652;28;20029;-78
2021/11/30 07:21:39;;;;;;;1.00;0.60;;;;;;;;;;5045033;28;20051;-77
2021/11/30 07:24:05;;;;;;;3.63;0.98;;;;;;;;;;5045113;28;20048;-77
2021/11/30 07:26:31;;;;;;;2.00;1.10;;;;;;;;;;5063101;28;20021;-77
2021/11/30 07:28:57;;;;;;;2.95;1.17;;;;;;;;;;5062245;28;20057;-77
2021/11/30 07:31:23;;;;;;;4.07;1.45;;;;;;;;;;5062797;28;20082;-76
2021/11/30 07:33:49;;;;;;;2.63;1.05;;;;;;;;;;5062844;28;20040;-77
2021/11/30 07:36:17;;;;;;;5.70;1.05;;;;;;;;;;5044690;28;20029;-76
2021/11/30 07:38:46;;;;;;;4.70;1.10;;;;;;;;;;5062607;28;20476;-76
2021/11/30 07:41:12;;;;;;;1.17;0.77;;;;;;;;;;5064340;28;20067;-78
2021/11/30 07:43:38;;;;;;;1.42;0.90;;;;;;;;;;5066805;28;20033;-77
2021/11/30 07:46:04;;;;;;;4.63;1.17;;;;;;;;;;5066476;28;20393;-76
2021/11/30 07:48:31;;;;;;;2.15;1.10;;;;;;;;;;5048839;28;20036;-77
2021/11/30 07:50:57;;;;;;;2.72;1.25;;;;;;;;;;5066366;28;20060;-76
2021/11/30 07:53:24;;;;;;;2.42;1.45;;;;;;;;;;5066685;28;20028;-79
2021/11/30 07:55:50;;;;;;;3.22;1.00;;;;;;;;;;5066687;28;20032;-77
2021/11/30 07:58:15;;;;;;;1.83;1.10;;;;;;;;;;5065869;28;20028;-74
2021/11/30 08:00:41;;;;;;;2.88;1.00;;;;;;;;;;5048129;28;20029;-76
2021/11/30 08:03:06;;;;;;;5.03;1.30;;;;;;;;;;5047541;28;20020;-76
2021/11/30 08:05:32;;;;;;;2.22;1.10;;;;;;;;;;5047805;28;20092;-78
2021/11/30 08:07:58;;;;;;;2.63;1.10;;;;;;;;;;5048108;28;20033;-77
2021/11/30 08:10:27;;;;;;;6.45;1.38;;;;;;;;;;5065921;28;20458;-75
2021/11/30 08:12:52;;;;;;;4.70;1.50;;;;;;;;;;5065159;28;20032;-76
2021/11/30 08:15:22;;;;;;;4.28;1.65;;;;;;;;;;5066111;28;20036;-75
2021/11/30 08:17:48;;;;;;;1.35;1.02;;;;;;;;;;5047422;28;20033;-75
2021/11/30 08:20:14;;;;;;;2.38;1.52;;;;;;;;;;5047422;28;20120;-76
2021/11/30 08:22:41;;;;;;;4.55;1.83;;;;;;;;;;5047589;28;20498;-77
2021/11/30 08:25:09;;;;;;;5.70;2.35;;;;;;;;;;5047696;28;20060;-76
2021/11/30 08:27:35;;;;;;;3.15;1.23;;;;;;;;;;5047445;28;20481;-73
2021/11/30 08:30:01;;;;;;;2.15;1.10;;;;;;;;;;5065861;28;20037;-76
2021/11/30 08:32:28;;;;;;;3.70;1.60;;;;;;;;;;5047041;28;20123;-76
2021/11/30 08:34:55;;;;;;;7.03;1.50;;;;;;;;;;5047588;28;20124;-78
2021/11/30 08:37:22;;;;;;;3.22;1.90;;;;;;;;;;5065156;28;20017;-75
2021/11/30 08:39:48;;;;;;;4.38;1.50;;;;;;;;;;5047287;28;20048;-76
2021/11/30 08:42:17;;;;;;;4.32;1.52;;;;;;;;;;5046880;28;20060;-76
2021/11/30 08:44:43;;;;;;;4.88;2.00;;;;;;;;;;5064233;28;20021;-75
2021/11/30 08:47:13;;;;;;;4.40;1.73;;;;;;;;;;5046316;28;20017;-76
2021/11/30 08:49:41;;;;;;;6.20;2.35;;;;;;;;;;5047166;28;20179;-77
2021/11/30 08:52:12;;;;;;;10.60;2.25;;;;;;;;;;5046878;28;20029;-77
2021/11/30 08:54:38;;;;;;;6.45;2.25;;;;;;;;;;5065143;28;20029;-76
2021/11/30 08:57:05;;;;;;;8.15;3.50;;;;;;;;;;5065096;28;20128;-77
2021/11/30 08:59:30;;;;;;;10.50;2.40;;;;;;;;;;5047216;28;20056;-77
2021/11/30 09:01:56;;;;;;;6.13;2.25;;;;;;;;;;5046574;28;20036;-77
2021/11/30 09:04:22;;;;;;;5.53;1.83;;;;;;;;;;5065018;28;20021;-78
2021/11/30 09:06:48;;;;;;;3.58;1.52;;;;;;;;;;5046552;28;20169;-77
2021/11/30 09:09:14;;;;;;;3.20;1.60;;;;;;;;;;5047046;28;20067;-76
2021/11/30 09:11:40;;;;;;;5.68;1.48;;;;;;;;;;5064951;28;20086;-78
2021/11/30 09:14:07;;;;;;;1.70;1.10;;;;;;;;;;5064919;28;20044;-78
2021/11/30 09:16:33;;;;;;;2.05;1.10;;;;;;;;;;5046661;28;20039;-77
2021/11/30 09:18:59;;;;;;;3.88;1.40;;;;;;;;;;5046564;28;20033;-77
2021/11/30 09:21:26;;;;;;;2.50;1.20;;;;;;;;;;5045741;28;20562;-77
2021/11/30 09:23:53;;;;;;;4.97;1.70;;;;;;;;;;5064363;28;20370;-78
2021/11/30 09:26:19;;;;;;;3.80;1.73;;;;;;;;;;5064484;28;20104;-78
2021/11/30 09:28:44;;;;;;;3.03;1.42;;;;;;;;;;5064349;28;20049;-79
2021/11/30 09:31:10;;;;;;;4.88;1.98;;;;;;;;;;5064430;28;20028;-76
2021/11/30 09:33:39;;;;;;;3.72;1.58;;;;;;;;;;5047018;28;20061;-76
2021/11/30 09:36:05;;;;;;;1.67;1.05;;;;;;;;;;5046552;28;20032;-76
2021/11/30 09:38:30;;;;;;;1.27;0.80;;;;;;;;;;5064268;28;20435;-75
2021/11/30 09:40:58;;;;;;;2.15;0.85;;;;;;;;;;5064463;28;20055;-75
2021/11/30 09:43:26;;;;;;;4.10;1.15;;;;;;;;;;5064147;28;20032;-78
2021/11/30 09:45:54;;;;;;;3.35;1.13;;;;;;;;;;5063251;28;20024;-78
2021/11/30 09:48:19;;;;;;;2.75;1.13;;;;;;;;;;5062560;28;20025;-75
2021/11/30 09:50:45;;;;;;;1.15;0.77;;;;;;;;;;5063928;28;20039;-78
2021/11/30 09:53:11;;;;;;;1.25;0.60;;;;;;;;;;5064089;28;20041;-75
2021/11/30 09:55:38;;;;;;;2.05;0.90;;;;;;;;;;5063063;28;20029;-73
2021/11/30 09:58:04;;;;;;;2.08;0.80;;;;;;;;;;5064350;28;20029;-78
2021/11/30 10:00:30;;;;;;;2.35;0.70;;;;;;;;;;5046020;28;20051;-76
2021/11/30 10:02:58;;;;;;;1.08;0.60;;;;;;;;;;5046059;28;20021;-75
2021/11/30 10:05:24;;;;;;;0.75;0.60;;;;;;;;;;5045567;28;20036;-75
2021/11/30 10:07:51;;;;;;;1.85;0.77;;;;;;;;;;5045554;28;20128;-77
2021/11/30 10:10:19;;;;;;;1.13;0.63;;;;;;;;;;5063865;28;20035;-75
2021/11/30 10:12:54;;;;;;;2.72;0.68;;;;;;;;;;5045391;28;20025;-79
2021/11/30 10:15:19;;;;;;;1.67;0.57;;;;;;;;;;5045820;28;20028;-77
2021/11/30 10:17:45;;;;;;;1.17;0.55;;;;;;;;;;5045732;28;20032;-79
2021/11/30 10:20:13;;;;;;;1.95;0.88;;;;;;;;;;5063434;28;20032;-79
2021/11/30 10:22:51;;;;;;;2.67;0.90;;;;;;;;;;5045719;28;20037;-78
2021/11/30 10:25:27;;;;;;;2.80;1.00;;;;;;;;;;5045477;28;20037;-79
2021/11/30 10:27:57;;;;;;;0.40;0.40;;;;;;;;;;5063119;28;20107;-80
2021/11/30 10:30:25;;;;;;;1.83;0.95;;;;;;;;;;5045666;28;20031;-78
2021/11/30 10:32:52;;;;;;;1.25;0.43;;;;;;;;;;5045338;28;20058;-76
2021/11/30 10:35:21;;;;;;;2.75;0.70;;;;;;;;;;5063818;28;20023;-80
2021/11/30 10:37:47;;;;;;;2.75;0.75;;;;;;;;;;5045068;28;20041;-76
2021/11/30 10:40:19;;;;;;;1.95;0.93;;;;;;;;;;5062722;28;20077;-77
2021/11/30 10:42:48;;;;;;;3.22;0.80;;;;;;;;;;5045608;28;20029;-78
2021/11/30 10:45:33;;;;;;;2.25;0.88;;;;;;;;;;5063584;28;20033;-77
2021/11/30 10:48:09;;;;;;;2.45;0.90;;;;;;;;;;5045095;28;20045;-76
2021/11/30 10:50:43;;;;;;;1.35;0.90;;;;;;;;;;5062959;28;20028;-75
2021/11/30 10:53:21;;;;;;;1.42;0.60;;;;;;;;;;5043999;28;20211;-77
2021/11/30 10:55:54;;;;;;;1.08;0.70;;;;;;;;;;5062663;28;20021;-75
2021/11/30 10:58:22;;;;;;;;;;;;;;;;;;5046081;28;20025;-77
2021/11/30 11:00:48;;;;;;;2.50;0.77;;;;;;;;;;5061645;28;19966;-75
2021/11/30 11:03:21;;;;;;;2.83;1.00;;;;;;;;;;5045954;28;20085;-76
2021/11/30 11:08:44;;;;;;;0.75;0.50;;;;;;;;;;5063349;28;20692;-75
2021/11/30 11:11:10;;;;;;;2.50;0.70;;;;;;;;;;5044699;28;20032;-76
2021/11/30 11:13:38;;;;;;;1.38;0.73;;;;;;;;;;5044565;28;20048;-77
2021/11/30 11:16:06;;;;;;;0.93;0.70;;;;;;;;;;5047490;28;20032;-75
2021/11/30 11:18:35;;;;;;;2.33;0.80;;;;;;;;;;5051712;28;20094;-76
2021/11/30 11:21:27;;;;;;;1.73;0.70;;;;;;;;;;5069214;28;20025;-76
2021/11/30 11:24:20;;;;;;;2.75;0.68;;;;;;;;;;5051676;28;20032;-78
2021/11/30 11:26:50;;;;;;;2.63;0.82;;;;;;;;;;5069989;28;20411;-76
2021/11/30 11:29:21;;;;;;;1.67;0.80;;;;;;;;;;5051225;28;20055;-75
2021/11/30 11:31:48;;;;;;;2.92;1.25;;;;;;;;;;5069341;28;20048;-77
2021/11/30 11:34:16;;;;;;;1.15;0.60;;;;;;;;;;5069195;28;20127;-75
2021/11/30 11:36:48;;;;;;;3.22;0.90;;;;;;;;;;5069128;28;20032;-76
2021/11/30 11:39:17;;;;;;;1.33;0.70;;;;;;;;;;5069404;28;20024;-78
2021/11/30 11:41:43;;;;;;;3.10;1.00;;;;;;;;;;5069481;28;20029;-74
2021/11/30 11:44:09;;;;;;;2.20;1.00;;;;;;;;;;5069666;28;20020;-74
2021/11/30 11:46:36;;;;;;;1.92;0.90;;;;;;;;;;5069521;28;20085;-75
2021/11/30 11:49:05;;;;;;;1.08;0.70;;;;;;;;;;5051359;28;20032;-76
2021/11/30 11:51:42;;;;;;;1.95;1.02;;;;;;;;;;5051261;28;20025;-74
2021/11/30 11:54:28;;;;;;;1.00;0.60;;;;;;;;;;5051203;28;20028;-76
2021/11/30 11:57:23;;;;;;;1.23;0.70;;;;;;;;;;5069428;28;20523;-74
2021/11/30 11:59:49;;;;;;;0.70;0.47;;;;;;;;;;5064036;28;20040;-74
2021/11/30 12:02:21;;;;;;;1.33;0.70;;;;;;;;;;5069344;28;20033;-74
2021/11/30 12:04:55;;;;;;;0.65;0.40;;;;;;;;;;5068622;28;20025;-77
2021/11/30 12:07:23;;;;;;;0.50;0.47;;;;;;;;;;5049930;28;20435;-74
2021/11/30 12:10:09;;;;;;;1.27;0.77;;;;;;;;;;5069252;28;20037;-75
2021/11/30 12:12:35;;;;;;;0.65;0.47;;;;;;;;;;5050743;28;20032;-76
2021/11/30 12:15:02;;;;;;;0.90;0.52;;;;;;;;;;5051299;28;20060;-77
2021/11/30 12:17:29;;;;;;;1.13;0.80;;;;;;;;;;5069364;28;20023;-74
2021/11/30 12:19:57;;;;;;;2.78;0.88;;;;;;;;;;5069511;28;20057;-75
2021/11/30 12:22:41;;;;;;;1.35;0.60;;;;;;;;;;5051371;28;20044;-76
2021/11/30 12:25:22;;;;;;;1.38;0.77;;;;;;;;;;5069406;28;20508;-74
2021/11/30 12:27:49;;;;;;;1.35;0.60;;;;;;;;;;5066048;28;20021;-76
2021/11/30 12:30:33;;;;;;;1.70;0.98;;;;;;;;;;5048311;28;20021;-74
2021/11/30 12:33:00;;;;;;;1.95;0.77;;;;;;;;;;5066577;28;20025;-75
2021/11/30 12:35:41;;;;;;;1.27;0.60;;;;;;;;;;5065897;28;20088;-80
2021/11/30 12:38:15;;;;;;;4.57;0.63;;;;;;;;;;5066191;28;20413;-74
2021/11/30 12:40:43;;;;;;;2.08;0.68;;;;;;;;;;5066092;28;20025;-78
2021/11/30 12:43:13;;;;;;;0.40;0.40;;;;;;;;;;5064814;28;20032;-76
2021/11/30 12:45:38;;;;;;;0.88;0.75;;;;;;;;;;5065759;28;20017;-75
2021/11/30 12:48:22;;;;;;;2.38;0.70;;;;;;;;;;5065759;28;20025;-76
2021/11/30 12:50:55;;;;;;;2.13;0.90;;;;;;;;;;5065600;28;20037;-78
2021/11/30 12:53:38;;;;;;;1.65;0.82;;;;;;;;;;5065661;28;20029;-77
2021/11/30 12:56:04;;;;;;;2.37;0.70;;;;;;;;;;5065499;28;20033;-76
2021/11/30 12:58:49;;;;;;;1.70;0.52;;;;;;;;;;5065569;28;20040;-76
2021/11/30 13:01:15;;;;;;;3.22;0.60;;;;;;;;;;5064951;28;20686;-78
2021/11/30 13:03:41;;;;;;;1.50;0.70;;;;;;;;;;5046755;28;20041;-76
2021/11/30 13:06:06;;;;;;;1.23;0.52;;;;;;;;;;5046787;28;20039;-77
2021/11/30 13:09:03;;;;;;;0.63;0.50;;;;;;;;;;5064697;28;20355;-76
2021/11/30 13:11:34;;;;;;;3.20;0.80;;;;;;;;;;5047320;28;20410;-79
2021/11/30 13:14:06;;;;;;;1.25;0.60;;;;;;;;;;5047325;28;20362;-76
2021/11/30 13:16:35;;;;;;;1.05;0.60;;;;;;;;;;5064962;28;20084;-76
2021/11/30 13:19:07;;;;;;;1.25;0.50;;;;;;;;;;5047182;28;20040;-79
2021/11/30 13:21:40;;;;;;;4.15;1.27;;;;;;;;;;5065069;28;20021;-77
2021/11/30 13:24:11;;;;;;;0.63;0.43;;;;;;;;;;5065227;28;20032;-74
2021/11/30 13:26:37;;;;;;;0.82;0.60;;;;;;;;;;5047241;28;20063;-77
2021/11/30 13:29:03;;;;;;;0.70;0.47;;;;;;;;;;5045919;28;20060;-76
2021/11/30 13:31:29;;;;;;;1.75;0.50;;;;;;;;;;5046819;28;20029;-75
2021/11/30 13:33:56;;;;;;;1.27;0.60;;;;;;;;;;5065031;28;20389;-75
2021/11/30 13:36:32;;;;;;;3.78;0.50;;;;;;;;;;5064669;28;20028;-75
2021/11/30 13:39:00;;;;;;;0.73;0.50;;;;;;;;;;5046355;28;20029;-74
2021/11/30 13:41:26;;;;;;;1.75;0.75;;;;;;;;;;5064381;28;20598;-76
2021/11/30 13:43:53;;;;;;;0.80;0.60;;;;;;;;;;5046422;28;20059;-78
2021/11/30 13:46:28;;;;;;;1.08;0.60;;;;;;;;;;5046233;28;20447;-74
2021/11/30 13:48:57;;;;;;;2.30;0.68;;;;;;;;;;5064683;28;20139;-77
2021/11/30 13:51:25;;;;;;;0.80;0.40;;;;;;;;;;5046425;28;20027;-76
2021/11/30 13:53:59;;;;;;;0.68;0.50;;;;;;;;;;5045249;28;20035;-76
2021/11/30 13:56:44;;;;;;;0.88;0.60;;;;;;;;;;5064130;28;20032;-76
2021/11/30 13:59:18;;;;;;;2.33;0.63;;;;;;;;;;5064057;28;20021;-76
2021/11/30 14:04:15;;;;;;;1.42;0.80;;;;;;;;;;5063921;28;20029;-77
2021/11/30 14:06:46;;;;;;;3.85;0.77;;;;;;;;;;5064005;28;20021;-77
2021/11/30 14:09:23;;;;;;;0.98;0.70;;;;;;;;;;5045872;28;20115;-76
2021/11/30 14:11:54;;;;;;;2.97;0.60;;;;;;;;;;5063637;28;20039;-77
2021/11/30 14:14:22;;;;;;;1.40;0.50;;;;;;;;;;5063937;28;20373;-78
2021/11/30 14:16:55;;;;;;;1.30;0.50;;;;;;;;;;5064205;28;20067;-77
2021/11/30 14:19:21;;;;;;;1.27;0.50;;;;;;;;;;5046378;28;20554;-76
2021/11/30 14:21:56;;;;;;;0.40;0.40;;;;;;;;;;5064033;28;20095;-78
2021/11/30 14:24:22;;;;;;;3.30;0.70;;;;;;;;;;5064117;28;20033;-78
2021/11/30 14:26:48;;;;;;;1.00;0.45;;;;;;;;;;5044805;28;20021;-77
2021/11/30 14:29:19;;;;;;;0.95;0.40;;;;;;;;;;5063794;28;20091;-78
2021/11/30 14:32:11;;;;;;;1.70;0.75;;;;;;;;;;5063637;28;20075;-76
2021/11/30 14:34:40;;;;;;;1.10;0.57;;;;;;;;;;5045547;28;20025;-77
2021/11/30 14:37:45;;;;;;;0.50;0.50;;;;;;;;;;5063931;28;20419;-78
2021/11/30 14:40:13;;;;;;;2.13;0.70;;;;;;;;;;5033546;28;20040;-77
2021/11/30 14:42:47;;;;;;;1.05;0.63;;;;;;;;;;5063189;28;20032;-77
2021/11/30 14:45:33;;;;;;;1.05;0.60;;;;;;;;;;5063395;28;20029;-78
2021/11/30 14:48:14;;;;;;;1.70;0.77;;;;;;;;;;5063131;28;20043;-78
2021/11/30 14:50:44;;;;;;;1.50;0.60;;;;;;;;;;5062533;28;20296;-76
2021/11/30 14:53:24;;;;;;;1.20;0.68;;;;;;;;;;5045568;28;20028;-76
2021/11/30 14:55:56;;;;;;;0.73;0.60;;;;;;;;;;5062831;28;20092;-77
2021/11/30 14:58:28;;;;;;;3.10;1.20;;;;;;;;;;5063220;28;20089;-80
2021/11/30 15:01:18;;;;;;;1.13;0.77;;;;;;;;;;5063109;28;20044;-78
2021/11/30 15:03:43;;;;;;;2.22;0.70;;;;;;;;;;5045223;28;20051;-75
2021/11/30 15:06:16;;;;;;;2.78;0.80;;;;;;;;;;5044849;28;20517;-78
2021/11/30 15:08:42;;;;;;;1.15;0.63;;;;;;;;;;5045153;28;20049;-79
2021/11/30 15:11:38;;;;;;;2.15;0.98;;;;;;;;;;5045211;28;20029;-77
2021/11/30 15:14:08;;;;;;;1.02;0.75;;;;;;;;;;5063068;28;20382;-78